createdAt,value
2022-11-15T00:03:13.673Z,101865.75
2022-11-15T00:08:28.072Z,101853.94
2022-11-15T00:13:52.427Z,101815.88
2022-11-15T00:19:30.650Z,101841.66
2022-11-15T00:24:50.268Z,102043.09
2022-11-15T00:30:07.562Z,101969.47
2022-11-15T00:35:44.663Z,101767.19
2022-11-15T00:41:36.468Z,101902.47
2022-11-15T00:47:19.421Z,101815.38
2022-11-15T00:52:43.584Z,101819.63
2022-11-15T00:58:09.064Z,101797.50
2022-11-15T01:03:43.893Z,101998.00
2022-11-15T01:08:57.333Z,101825.56
2022-11-15T01:14:52.150Z,101779.84
2022-11-15T01:20:42.566Z,101937.97
2022-11-15T01:26:42.334Z,101718.22
2022-11-15T01:32:04.590Z,101816.00
2022-11-15T01:37:17.008Z,102006.16
2022-11-15T01:42:32.927Z,101791.50
2022-11-15T01:47:54.244Z,101857.25
2022-11-15T01:53:14.931Z,101789.44
2022-11-15T01:58:29.210Z,101995.06
2022-11-15T02:04:41.100Z,101911.84
2022-11-15T02:10:08.313Z,101878.94
2022-11-15T02:15:22.511Z,101810.53
2022-11-15T02:20:49.840Z,101988.78
2022-11-15T02:26:20.811Z,101850.81
2022-11-15T02:31:41.142Z,101864.34
2022-11-15T02:37:28.097Z,101823.66
2022-11-15T02:43:48.521Z,101789.06
2022-11-15T02:56:12.061Z,101980.94
2022-11-15T03:01:38.296Z,101965.69
2022-11-15T03:06:58.576Z,101759.41
2022-11-15T03:12:20.091Z,101906.41
2022-11-15T03:17:57.749Z,101684.81
2022-11-15T03:23:20.371Z,101763.31
2022-11-15T03:28:37.727Z,101759.88
2022-11-15T03:33:56.326Z,101736.31
2022-11-15T03:39:41.932Z,101887.56
2022-11-15T03:46:35.660Z,101945.47
2022-11-15T03:52:08.170Z,101714.69
2022-11-15T03:58:09.709Z,101648.88
2022-11-15T04:03:42.713Z,101706.06
2022-11-15T04:09:21.867Z,101730.34
2022-11-15T04:14:35.093Z,101923.22
2022-11-15T04:20:03.700Z,101906.22
2022-11-15T04:25:22.919Z,101864.88
2022-11-15T04:30:46.121Z,101855.50
2022-11-15T04:36:15.650Z,101906.38
2022-11-15T04:41:27.469Z,101864.88
2022-11-15T04:46:40.532Z,101717.72
2022-11-15T04:51:52.802Z,101783.66
2022-11-15T04:57:04.511Z,101879.88
2022-11-15T05:02:17.916Z,101922.47
2022-11-15T05:07:29.656Z,101783.78
2022-11-15T05:12:41.530Z,101869.84
2022-11-15T05:18:00.004Z,101850.38
2022-11-15T05:23:11.987Z,101907.72
2022-11-15T05:28:23.694Z,101909.41
2022-11-15T05:33:41.026Z,101866.31
2022-11-15T05:38:53.351Z,101913.72
2022-11-15T05:44:10.419Z,101918.91
2022-11-15T05:49:32.372Z,101914.50
2022-11-15T05:54:47.892Z,101914.44
2022-11-15T06:00:00.009Z,101914.50
2022-11-15T06:05:13.265Z,101826.59
2022-11-15T06:10:25.338Z,101917.81
2022-11-15T06:15:37.500Z,101808.84
2022-11-15T06:20:51.109Z,101742.16
2022-11-15T06:26:03.428Z,101888.84
2022-11-15T06:31:15.280Z,101923.47
2022-11-15T06:36:28.668Z,101715.63
2022-11-15T06:41:40.458Z,101881.22
2022-11-15T06:46:52.663Z,101822.84
2022-11-15T06:52:06.591Z,101794.81
2022-11-15T06:57:19.757Z,101896.84
2022-11-15T07:02:33.412Z,101918.75
2022-11-15T07:07:53.590Z,101895.75
2022-11-15T07:13:06.733Z,101891.38
2022-11-15T07:18:31.053Z,101907.47
2022-11-15T07:23:46.366Z,101908.84
2022-11-15T07:29:00.901Z,101854.19
2022-11-15T07:34:13.685Z,101879.47
2022-11-15T07:39:26.701Z,101867.56
2022-11-15T07:44:38.904Z,101902.88
2022-11-15T07:49:50.953Z,101895.81
2022-11-15T07:55:04.186Z,101874.47
2022-11-15T08:00:17.233Z,101862.75
2022-11-15T08:05:31.377Z,101882.09
2022-11-15T08:10:44.635Z,101898.91
2022-11-15T08:16:02.268Z,101759.88
2022-11-15T08:21:18.527Z,101765.75
2022-11-15T08:26:32.393Z,101817.66
2022-11-15T08:31:50.650Z,101751.53
2022-11-15T08:37:55.887Z,101878.53
2022-11-15T08:49:06.440Z,101747.81
2022-11-15T08:54:18.397Z,101763.72
2022-11-15T08:59:31.735Z,101849.22
2022-11-15T09:04:44.483Z,101806.91
2022-11-15T09:09:55.971Z,101712.31
2022-11-15T09:15:18.841Z,101803.84
2022-11-15T09:20:37.000Z,101742.66
2022-11-15T09:25:49.014Z,101815.47
2022-11-15T09:31:22.416Z,101738.09
2022-11-15T09:36:34.550Z,101660.75
2022-11-15T09:42:28.135Z,101753.84
2022-11-15T09:48:33.195Z,101528.59
2022-11-15T09:54:37.535Z,101590.22
2022-11-15T09:59:40.969Z,101742.25
2022-11-15T10:04:38.916Z,101584.91
2022-11-15T10:09:55.066Z,101575.91
2022-11-15T10:14:54.616Z,101520.97
2022-11-15T10:20:13.160Z,101586.97
2022-11-15T10:25:22.190Z,101703.25
2022-11-15T10:30:18.163Z,101616.16
2022-11-15T10:35:27.348Z,101737.69
2022-11-15T10:40:33.323Z,101716.16
2022-11-15T10:45:30.626Z,101662.31
2022-11-15T10:51:03.279Z,101644.53
2022-11-15T10:56:04.185Z,101644.53
2022-11-15T11:00:59.060Z,101628.56
2022-11-15T11:06:07.019Z,101503.94
2022-11-15T11:11:05.571Z,101683.91
2022-11-15T11:16:14.286Z,101457.28
2022-11-15T11:21:19.936Z,101403.28
2022-11-15T11:26:32.233Z,101550.16
2022-11-15T11:31:34.563Z,101463.00
2022-11-15T11:36:44.805Z,101646.50
2022-11-15T11:42:01.016Z,101643.97
2022-11-15T11:47:03.925Z,101486.81
2022-11-15T11:52:07.954Z,101573.34
2022-11-15T11:57:05.134Z,101631.72
2022-11-15T12:02:11.440Z,101381.84
2022-11-15T12:07:13.722Z,101622.22
2022-11-15T12:12:33.278Z,101417.88
2022-11-15T12:17:34.064Z,101612.88
2022-11-15T12:22:51.164Z,101605.91
2022-11-15T12:27:51.729Z,101437.47
2022-11-15T12:32:55.793Z,101320.50
2022-11-15T12:38:04.683Z,101434.56
2022-11-15T12:43:16.500Z,101329.03
2022-11-15T12:48:59.688Z,101579.59
2022-11-15T12:53:58.621Z,101575.44
2022-11-15T12:59:00.233Z,101498.84
2022-11-15T13:04:25.353Z,101368.56
2022-11-15T13:10:01.044Z,101567.28
2022-11-15T13:14:58.911Z,101350.28
2022-11-15T13:19:59.882Z,101402.44
2022-11-15T13:24:58.447Z,101273.72
2022-11-15T13:30:06.804Z,101406.41
2022-11-15T13:35:05.893Z,101335.41
2022-11-15T13:40:32.644Z,101365.22
2022-11-15T13:45:47.258Z,101463.66
2022-11-15T13:50:51.503Z,101323.78
2022-11-15T13:55:49.665Z,101511.94
2022-11-15T14:00:48.458Z,101508.34
2022-11-15T14:06:18.861Z,101480.03
2022-11-15T14:11:22.372Z,101406.88
2022-11-15T14:16:28.285Z,101497.03
2022-11-15T14:21:23.513Z,101444.84
2022-11-15T14:26:34.010Z,101376.75
2022-11-15T14:31:28.772Z,101285.84
2022-11-15T14:36:25.676Z,101387.38
2022-11-15T14:41:25.829Z,101251.84
2022-11-15T14:46:24.262Z,101393.09
2022-11-15T14:51:27.200Z,101394.25
2022-11-15T14:56:34.827Z,101374.81
2022-11-15T15:01:40.786Z,101288.44
2022-11-15T15:06:54.537Z,101255.81
2022-11-15T15:11:50.657Z,101452.34
2022-11-15T15:16:49.998Z,101450.66
2022-11-15T15:21:48.985Z,101403.06
2022-11-15T15:26:44.509Z,101416.72
2022-11-15T15:31:37.814Z,101453.06
2022-11-15T15:36:31.116Z,101413.66
2022-11-15T15:41:26.086Z,101399.53
2022-11-15T15:46:20.872Z,101405.47
2022-11-15T15:51:20.125Z,101311.31
2022-11-15T15:56:16.335Z,101337.47
2022-11-15T16:01:11.041Z,101375.28
2022-11-15T16:06:07.253Z,101348.47
2022-11-15T16:11:04.777Z,101412.28
2022-11-15T16:15:59.635Z,101390.72
2022-11-15T16:27:33.204Z,101411.69
2022-11-15T16:32:44.544Z,101334.53
2022-11-15T16:43:39.984Z,101339.94
2022-11-15T16:48:44.533Z,101277.69
2022-11-15T16:53:49.874Z,101264.50
2022-11-15T16:58:46.259Z,101122.25
2022-11-15T17:03:42.310Z,101276.22
2022-11-15T17:08:37.700Z,101343.31
2022-11-15T17:13:33.622Z,101327.81
2022-11-15T17:18:36.522Z,101166.28
2022-11-15T17:23:35.131Z,101167.19
2022-11-15T17:28:28.876Z,101295.41
2022-11-15T17:33:30.101Z,101365.34
2022-11-15T17:38:42.833Z,101127.31
2022-11-15T17:43:44.171Z,101137.59
2022-11-15T17:48:59.520Z,101165.78
2022-11-15T17:54:23.173Z,101127.06
2022-11-15T17:59:21.376Z,101332.19
2022-11-15T18:04:23.135Z,101140.84
2022-11-15T18:09:22.045Z,101222.47
2022-11-15T18:14:25.462Z,101220.56
2022-11-15T18:19:24.985Z,101071.88
2022-11-15T18:25:13.190Z,101084.81
2022-11-15T18:30:29.232Z,101114.00
2022-11-15T18:35:24.111Z,101244.09
2022-11-15T18:40:28.738Z,101163.34
2022-11-15T18:45:24.539Z,101311.53
2022-11-15T18:50:20.448Z,101287.31
2022-11-15T21:46:08.393Z,101141.22
2022-11-15T22:13:24.179Z,100832.94
2022-11-15T22:52:57.556Z,100804.31
